Terminal Aerodrome Forecast
Issued by NWS Tampa Bay Area, FL

Home | Current Version | Previous Version | Text Only | Print | Product List | Glossary On
Versions: 1 2 3 4 5 6 7 8 9 10 11 12 13 14 15 16 17 18 19 20 21 22 23 24 25
000
FTUS42 KTBW 231744
TAFTPA
TAF
KTPA 231744Z 2318/2424 15007KT P6SM SCT050
     FM232000 26005KT P6SM BKN050
     FM240100 VRB04KT P6SM SCT050
     FM241400 13007KT P6SM SCT025
     FM241800 24008KT P6SM SCT050=

USA.gov is the U.S. government's official web portal to all federal, state and local government web resources and services.